sensor_id;sensor_type;location;lat;lon;timestamp;P1;durP1;ratioP1;P2;durP2;ratioP2
63551;SDS011;49698;48.072;7.800;2023-11-21T02:26:30;15.50;;;15.00;;
63551;SDS011;49698;48.072;7.800;2023-11-21T02:38:57;15.50;;;15.00;;
63551;SDS011;49698;48.072;7.800;2023-11-21T02:43:53;14.80;;;14.30;;
63551;SDS011;49698;48.072;7.800;2023-11-21T02:46:21;14.10;;;13.60;;
63551;SDS011;49698;48.072;7.800;2023-11-21T02:48:50;14.40;;;13.90;;
63551;SDS011;49698;48.072;7.800;2023-11-21T02:53:49;15.20;;;14.70;;
63551;SDS011;49698;48.072;7.800;2023-11-21T02:56:18;14.80;;;14.30;;
63551;SDS011;49698;48.072;7.800;2023-11-21T03:31:28;15.10;;;14.60;;
63551;SDS011;49698;48.072;7.800;2023-11-21T03:33:56;14.57;;;14.07;;
63551;SDS011;49698;48.072;7.800;2023-11-21T03:36:24;14.90;;;14.40;;
63551;SDS011;49698;48.072;7.800;2023-11-21T03:38:52;14.50;;;14.00;;
63551;SDS011;49698;48.072;7.800;2023-11-21T03:41:21;13.50;;;13.10;;
63551;SDS011;49698;48.072;7.800;2023-11-21T03:46:19;56.53;;;41.58;;
63551;SDS011;49698;48.072;7.800;2023-11-21T03:48:47;89.33;;;60.07;;
63551;SDS011;49698;48.072;7.800;2023-11-21T03:51:15;92.80;;;68.30;;
63551;SDS011;49698;48.072;7.800;2023-11-21T03:53:43;39.23;;;32.00;;
63551;SDS011;49698;48.072;7.800;2023-11-21T03:56:11;92.38;;;58.70;;
63551;SDS011;49698;48.072;7.800;2023-11-21T03:58:41;92.13;;;60.42;;
63551;SDS011;49698;48.072;7.800;2023-11-21T04:01:09;90.63;;;63.88;;
63551;SDS011;49698;48.072;7.800;2023-11-21T04:03:38;91.25;;;58.55;;
63551;SDS011;49698;48.072;7.800;2023-11-21T04:06:07;91.63;;;63.88;;
63551;SDS011;49698;48.072;7.800;2023-11-21T04:08:36;90.38;;;63.22;;
63551;SDS011;49698;48.072;7.800;2023-11-21T04:11:04;89.70;;;64.65;;
63551;SDS011;49698;48.072;7.800;2023-11-21T04:13:32;91.77;;;64.37;;
63551;SDS011;49698;48.072;7.800;2023-11-21T04:16:00;89.60;;;61.50;;
63551;SDS011;49698;48.072;7.800;2023-11-21T04:18:29;85.80;;;61.30;;
63551;SDS011;49698;48.072;7.800;2023-11-21T04:20:59;87.65;;;57.10;;
63551;SDS011;49698;48.072;7.800;2023-11-21T04:23:28;91.07;;;57.28;;
63551;SDS011;49698;48.072;7.800;2023-11-21T04:25:57;68.35;;;44.60;;
63551;SDS011;49698;48.072;7.800;2023-11-21T04:28:25;88.50;;;58.67;;
63551;SDS011;49698;48.072;7.800;2023-11-21T04:30:53;49.20;;;40.75;;
63551;SDS011;49698;48.072;7.800;2023-11-21T04:33:22;91.40;;;62.03;;
63551;SDS011;49698;48.072;7.800;2023-11-21T04:35:50;92.97;;;63.03;;
63551;SDS011;49698;48.072;7.800;2023-11-21T04:38:19;90.40;;;57.70;;
63551;SDS011;49698;48.072;7.800;2023-11-21T04:40:47;91.75;;;63.00;;
63551;SDS011;49698;48.072;7.800;2023-11-21T04:43:15;90.77;;;63.07;;
63551;SDS011;49698;48.072;7.800;2023-11-21T04:45:43;86.80;;;61.75;;
63551;SDS011;49698;48.072;7.800;2023-11-21T04:48:12;88.22;;;60.65;;
63551;SDS011;49698;48.072;7.800;2023-11-21T04:50:40;85.43;;;56.37;;
63551;SDS011;49698;48.072;7.800;2023-11-21T04:53:08;90.83;;;57.13;;
63551;SDS011;49698;48.072;7.800;2023-11-21T04:55:40;91.15;;;60.45;;
63551;SDS011;49698;48.072;7.800;2023-11-21T04:58:09;84.17;;;54.70;;
63551;SDS011;49698;48.072;7.800;2023-11-21T05:00:38;92.13;;;58.50;;
63551;SDS011;49698;48.072;7.800;2023-11-21T05:03:06;78.80;;;47.20;;
63551;SDS011;49698;48.072;7.800;2023-11-21T05:05:34;78.90;;;47.40;;
63551;SDS011;49698;48.072;7.800;2023-11-21T05:08:03;92.63;;;55.60;;
63551;SDS011;49698;48.072;7.800;2023-11-21T05:10:31;85.97;;;54.70;;
63551;SDS011;49698;48.072;7.800;2023-11-21T05:13:01;86.60;;;59.00;;
63551;SDS011;49698;48.072;7.800;2023-11-21T05:15:29;92.07;;;55.50;;
63551;SDS011;49698;48.072;7.800;2023-11-21T05:17:57;92.33;;;62.03;;
63551;SDS011;49698;48.072;7.800;2023-11-21T05:20:26;86.45;;;58.25;;
63551;SDS011;49698;48.072;7.800;2023-11-21T05:22:54;82.47;;;55.83;;
63551;SDS011;49698;48.072;7.800;2023-11-21T05:25:22;39.78;;;34.63;;
63551;SDS011;49698;48.072;7.800;2023-11-21T05:27:50;14.23;;;13.63;;
63551;SDS011;49698;48.072;7.800;2023-11-21T05:30:21;15.25;;;14.60;;
63551;SDS011;49698;48.072;7.800;2023-11-21T05:32:49;20.27;;;18.90;;
63551;SDS011;49698;48.072;7.800;2023-11-21T05:35:17;20.53;;;19.00;;
63551;SDS011;49698;48.072;7.800;2023-11-21T05:37:45;38.58;;;34.05;;
63551;SDS011;49698;48.072;7.800;2023-11-21T05:40:14;20.08;;;18.55;;
63551;SDS011;49698;48.072;7.800;2023-11-21T05:42:43;43.07;;;36.20;;
63551;SDS011;49698;48.072;7.800;2023-11-21T05:45:12;15.43;;;14.57;;
63551;SDS011;49698;48.072;7.800;2023-11-21T05:47:41;30.20;;;27.27;;
63551;SDS011;49698;48.072;7.800;2023-11-21T05:50:12;13.77;;;13.27;;
63551;SDS011;49698;48.072;7.800;2023-11-21T05:52:42;13.95;;;13.45;;
63551;SDS011;49698;48.072;7.800;2023-11-21T05:55:10;18.10;;;17.30;;
63551;SDS011;49698;48.072;7.800;2023-11-21T05:57:40;33.53;;;30.27;;
63551;SDS011;49698;48.072;7.800;2023-11-21T06:00:10;34.73;;;30.53;;
63551;SDS011;49698;48.072;7.800;2023-11-21T06:02:46;21.00;;;19.40;;
63551;SDS011;49698;48.072;7.800;2023-11-21T06:05:17;15.20;;;14.70;;
63551;SDS011;49698;48.072;7.800;2023-11-21T06:07:46;15.40;;;14.90;;
63551;SDS011;49698;48.072;7.800;2023-11-21T06:12:44;12.20;;;11.80;;
63551;SDS011;49698;48.072;7.800;2023-11-21T06:15:12;15.70;;;15.20;;
63551;SDS011;49698;48.072;7.800;2023-11-21T06:17:41;14.07;;;13.57;;
63551;SDS011;49698;48.072;7.800;2023-11-21T06:20:12;44.33;;;33.05;;
63551;SDS011;49698;48.072;7.800;2023-11-21T06:22:42;85.97;;;52.10;;
63551;SDS011;49698;48.072;7.800;2023-11-21T06:25:11;74.73;;;45.70;;
63551;SDS011;49698;48.072;7.800;2023-11-21T06:27:41;14.63;;;14.07;;
63551;SDS011;49698;48.072;7.800;2023-11-21T06:30:11;19.40;;;18.00;;
63551;SDS011;49698;48.072;7.800;2023-11-21T06:32:40;39.33;;;34.37;;
63551;SDS011;49698;48.072;7.800;2023-11-21T06:35:13;78.83;;;57.23;;
63551;SDS011;49698;48.072;7.800;2023-11-21T06:37:42;90.10;;;60.40;;
63551;SDS011;49698;48.072;7.800;2023-11-21T06:40:14;33.40;;;29.90;;
63551;SDS011;49698;48.072;7.800;2023-11-21T06:42:42;61.50;;;46.25;;
63551;SDS011;49698;48.072;7.800;2023-11-21T06:45:11;85.07;;;57.10;;
63551;SDS011;49698;48.072;7.800;2023-11-21T06:47:40;21.33;;;19.65;;
63551;SDS011;49698;48.072;7.800;2023-11-21T06:50:08;48.65;;;40.40;;
63551;SDS011;49698;48.072;7.800;2023-11-21T06:52:38;33.23;;;30.03;;
63551;SDS011;49698;48.072;7.800;2023-11-21T06:55:07;66.70;;;49.57;;
63551;SDS011;49698;48.072;7.800;2023-11-21T06:57:36;42.70;;;36.10;;
63551;SDS011;49698;48.072;7.800;2023-11-21T07:00:05;19.30;;;18.02;;
63551;SDS011;49698;48.072;7.800;2023-11-21T07:02:35;14.53;;;14.00;;
63551;SDS011;49698;48.072;7.800;2023-11-21T07:05:03;15.07;;;14.57;;
63551;SDS011;49698;48.072;7.800;2023-11-21T07:07:32;22.58;;;20.92;;
63551;SDS011;49698;48.072;7.800;2023-11-21T07:10:03;14.60;;;14.10;;
63551;SDS011;49698;48.072;7.800;2023-11-21T07:12:32;14.20;;;13.70;;
63551;SDS011;49698;48.072;7.800;2023-11-21T07:15:00;15.50;;;15.00;;
63551;SDS011;49698;48.072;7.800;2023-11-21T07:17:29;18.52;;;17.92;;
63551;SDS011;49698;48.072;7.800;2023-11-21T07:19:58;13.70;;;13.30;;
63551;SDS011;49698;48.072;7.800;2023-11-21T07:22:26;16.83;;;16.30;;
63551;SDS011;49698;48.072;7.800;2023-11-21T07:24:54;14.63;;;14.13;;
63551;SDS011;49698;48.072;7.800;2023-11-21T07:27:24;15.75;;;15.25;;
63551;SDS011;49698;48.072;7.800;2023-11-21T07:29:53;14.55;;;14.05;;
63551;SDS011;49698;48.072;7.800;2023-11-21T07:32:21;15.55;;;15.05;;
63551;SDS011;49698;48.072;7.800;2023-11-21T07:34:49;13.47;;;13.07;;
63551;SDS011;49698;48.072;7.800;2023-11-21T07:37:17;15.75;;;15.25;;
63551;SDS011;49698;48.072;7.800;2023-11-21T07:39:46;34.40;;;31.23;;
63551;SDS011;49698;48.072;7.800;2023-11-21T07:42:14;63.08;;;49.40;;
63551;SDS011;49698;48.072;7.800;2023-11-21T07:44:44;14.55;;;13.95;;
63551;SDS011;49698;48.072;7.800;2023-11-21T07:47:12;42.80;;;37.37;;
63551;SDS011;49698;48.072;7.800;2023-11-21T07:49:41;28.88;;;25.98;;
63551;SDS011;49698;48.072;7.800;2023-11-21T07:52:10;15.40;;;14.65;;
63551;SDS011;49698;48.072;7.800;2023-11-21T07:54:38;28.70;;;25.85;;
63551;SDS011;49698;48.072;7.800;2023-11-21T07:57:06;90.50;;;65.80;;
63551;SDS011;49698;48.072;7.800;2023-11-21T07:59:34;58.35;;;47.17;;
63551;SDS011;49698;48.072;7.800;2023-11-21T08:02:04;32.70;;;29.47;;
63551;SDS011;49698;48.072;7.800;2023-11-21T08:04:32;14.87;;;14.20;;
63551;SDS011;49698;48.072;7.800;2023-11-21T08:07:00;15.05;;;14.55;;
63551;SDS011;49698;48.072;7.800;2023-11-21T08:09:30;13.37;;;12.97;;
63551;SDS011;49698;48.072;7.800;2023-11-21T08:11:59;16.55;;;16.05;;
63551;SDS011;49698;48.072;7.800;2023-11-21T08:14:29;14.35;;;13.85;;
63551;SDS011;49698;48.072;7.800;2023-11-21T08:16:57;14.70;;;14.20;;
63551;SDS011;49698;48.072;7.800;2023-11-21T08:19:26;13.70;;;13.30;;
63551;SDS011;49698;48.072;7.800;2023-11-21T08:21:54;15.55;;;15.05;;
63551;SDS011;49698;48.072;7.800;2023-11-21T08:24:23;16.80;;;16.25;;
63551;SDS011;49698;48.072;7.800;2023-11-21T08:26:51;14.60;;;14.10;;
63551;SDS011;49698;48.072;7.800;2023-11-21T08:29:19;12.90;;;12.50;;
63551;SDS011;49698;48.072;7.800;2023-11-21T08:31:46;26.35;;;24.05;;
63551;SDS011;49698;48.072;7.800;2023-11-21T08:34:15;49.10;;;41.60;;
63551;SDS011;49698;48.072;7.800;2023-11-21T08:36:44;13.50;;;12.90;;
63551;SDS011;49698;48.072;7.800;2023-11-21T08:39:12;12.68;;;12.27;;
63551;SDS011;49698;48.072;7.800;2023-11-21T08:41:41;24.67;;;22.70;;
63551;SDS011;49698;48.072;7.800;2023-11-21T08:44:09;26.15;;;23.98;;
63551;SDS011;49698;48.072;7.800;2023-11-21T08:46:37;35.95;;;31.40;;
63551;SDS011;49698;48.072;7.800;2023-11-21T08:49:06;44.33;;;37.57;;
63551;SDS011;49698;48.072;7.800;2023-11-21T08:51:34;65.38;;;49.85;;
63551;SDS011;49698;48.072;7.800;2023-11-21T08:54:03;15.30;;;14.80;;
63551;SDS011;49698;48.072;7.800;2023-11-21T08:56:34;25.80;;;23.70;;
63551;SDS011;49698;48.072;7.800;2023-11-21T08:59:02;74.65;;;55.10;;
63551;SDS011;49698;48.072;7.800;2023-11-21T09:01:31;14.55;;;13.98;;
63551;SDS011;49698;48.072;7.800;2023-11-21T09:06:27;14.05;;;13.60;;
63551;SDS011;49698;48.072;7.800;2023-11-21T09:08:55;12.10;;;11.70;;
63551;SDS011;49698;48.072;7.800;2023-11-21T09:28:48;14.10;;;13.65;;
63551;SDS011;49698;48.072;7.800;2023-11-21T09:31:17;14.60;;;14.10;;
63551;SDS011;49698;48.072;7.800;2023-11-21T09:33:49;13.90;;;13.40;;
63551;SDS011;49698;48.072;7.800;2023-11-21T09:36:17;15.05;;;14.55;;
63551;SDS011;49698;48.072;7.800;2023-11-21T09:38:45;15.20;;;14.70;;
63551;SDS011;49698;48.072;7.800;2023-11-21T09:41:19;15.25;;;14.75;;
63551;SDS011;49698;48.072;7.800;2023-11-21T09:43:53;14.80;;;14.30;;
63551;SDS011;49698;48.072;7.800;2023-11-21T09:48:56;14.50;;;14.00;;
63551;SDS011;49698;48.072;7.800;2023-11-21T09:51:28;15.65;;;15.15;;
63551;SDS011;49698;48.072;7.800;2023-11-21T09:53:59;13.90;;;13.50;;
63551;SDS011;49698;48.072;7.800;2023-11-21T09:56:32;18.20;;;17.60;;
63551;SDS011;49698;48.072;7.800;2023-11-21T11:11:47;14.55;;;14.05;;
63551;SDS011;49698;48.072;7.800;2023-11-21T11:16:45;13.30;;;12.90;;
63551;SDS011;49698;48.072;7.800;2023-11-21T11:42:18;18.70;;;18.10;;
63551;SDS011;49698;48.072;7.800;2023-11-21T12:15:17;14.87;;;14.37;;
63551;SDS011;49698;48.072;7.800;2023-11-21T12:17:45;15.20;;;14.70;;
63551;SDS011;49698;48.072;7.800;2023-11-21T12:20:14;15.10;;;14.60;;
63551;SDS011;49698;48.072;7.800;2023-11-21T12:22:44;13.60;;;13.20;;
63551;SDS011;49698;48.072;7.800;2023-11-21T12:25:15;15.30;;;14.80;;
63551;SDS011;49698;48.072;7.800;2023-11-21T12:27:46;16.75;;;16.25;;
63551;SDS011;49698;48.072;7.800;2023-11-21T12:30:16;13.90;;;13.50;;
63551;SDS011;49698;48.072;7.800;2023-11-21T12:32:49;15.50;;;15.00;;
63551;SDS011;49698;48.072;7.800;2023-11-21T12:35:18;14.48;;;13.98;;
63551;SDS011;49698;48.072;7.800;2023-11-21T12:37:48;14.90;;;14.40;;
63551;SDS011;49698;48.072;7.800;2023-11-21T12:40:18;14.73;;;14.23;;
63551;SDS011;49698;48.072;7.800;2023-11-21T18:16:04;18.10;;;17.50;;
63551;SDS011;49698;48.072;7.800;2023-11-21T19:52:44;14.65;;;14.15;;
63551;SDS011;49698;48.072;7.800;2023-11-21T19:55:13;17.60;;;17.00;;
63551;SDS011;49698;48.072;7.800;2023-11-21T19:57:42;15.45;;;14.95;;
63551;SDS011;49698;48.072;7.800;2023-11-21T20:00:11;14.25;;;13.75;;
63551;SDS011;49698;48.072;7.800;2023-11-21T20:07:42;14.70;;;14.20;;
63551;SDS011;49698;48.072;7.800;2023-11-21T20:10:12;17.07;;;16.47;;
63551;SDS011;49698;48.072;7.800;2023-11-21T20:12:40;15.53;;;15.03;;
63551;SDS011;49698;48.072;7.800;2023-11-21T20:15:11;12.95;;;12.55;;
63551;SDS011;49698;48.072;7.800;2023-11-21T20:17:39;18.08;;;17.42;;
63551;SDS011;49698;48.072;7.800;2023-11-21T20:20:12;14.20;;;13.70;;
63551;SDS011;49698;48.072;7.800;2023-11-21T21:37:19;21.50;;;20.80;;
63551;SDS011;49698;48.072;7.800;2023-11-21T21:39:47;15.15;;;14.65;;
63551;SDS011;49698;48.072;7.800;2023-11-21T21:42:16;15.10;;;14.60;;
63551;SDS011;49698;48.072;7.800;2023-11-21T21:44:44;14.05;;;13.60;;
63551;SDS011;49698;48.072;7.800;2023-11-21T21:49:40;17.55;;;16.92;;
63551;SDS011;49698;48.072;7.800;2023-11-21T21:52:10;16.00;;;15.50;;
63551;SDS011;49698;48.072;7.800;2023-11-21T21:54:38;15.80;;;15.27;;
63551;SDS011;49698;48.072;7.800;2023-11-21T22:02:04;17.60;;;17.00;;
63551;SDS011;49698;48.072;7.800;2023-11-21T22:04:33;16.90;;;16.30;;
63551;SDS011;49698;48.072;7.800;2023-11-21T22:07:01;15.53;;;15.03;;
63551;SDS011;49698;48.072;7.800;2023-11-21T22:09:31;14.90;;;14.40;;
63551;SDS011;49698;48.072;7.800;2023-11-21T22:11:59;16.40;;;15.90;;
63551;SDS011;49698;48.072;7.800;2023-11-21T22:14:28;14.80;;;14.30;;
63551;SDS011;49698;48.072;7.800;2023-11-21T22:19:24;15.40;;;14.90;;
63551;SDS011;49698;48.072;7.800;2023-11-21T22:21:52;13.55;;;13.15;;
63551;SDS011;49698;48.072;7.800;2023-11-21T22:24:21;14.23;;;13.73;;
63551;SDS011;49698;48.072;7.800;2023-11-21T22:26:50;14.95;;;14.45;;
63551;SDS011;49698;48.072;7.800;2023-11-21T22:29:18;17.20;;;16.60;;
63551;SDS011;49698;48.072;7.800;2023-11-21T22:31:46;15.80;;;15.30;;
63551;SDS011;49698;48.072;7.800;2023-11-21T22:34:15;15.60;;;15.10;;
63551;SDS011;49698;48.072;7.800;2023-11-21T22:36:44;15.90;;;15.40;;
63551;SDS011;49698;48.072;7.800;2023-11-21T22:39:12;18.60;;;18.00;;
63551;SDS011;49698;48.072;7.800;2023-11-21T22:41:40;22.20;;;21.30;;
63551;SDS011;49698;48.072;7.800;2023-11-21T22:44:09;16.70;;;16.20;;
63551;SDS011;49698;48.072;7.800;2023-11-21T22:46:40;15.68;;;15.18;;
63551;SDS011;49698;48.072;7.800;2023-11-21T22:49:08;18.20;;;17.60;;
63551;SDS011;49698;48.072;7.800;2023-11-21T23:06:29;20.30;;;19.50;;
63551;SDS011;49698;48.072;7.800;2023-11-21T23:08:57;17.10;;;16.50;;
63551;SDS011;49698;48.072;7.800;2023-11-21T23:11:25;17.55;;;16.95;;
63551;SDS011;49698;48.072;7.800;2023-11-21T23:13:53;15.20;;;14.70;;
63551;SDS011;49698;48.072;7.800;2023-11-21T23:16:21;14.80;;;14.30;;
63551;SDS011;49698;48.072;7.800;2023-11-21T23:18:51;17.85;;;17.25;;
63551;SDS011;49698;48.072;7.800;2023-11-21T23:21:19;18.75;;;18.05;;
63551;SDS011;49698;48.072;7.800;2023-11-21T23:23:47;20.90;;;20.10;;
63551;SDS011;49698;48.072;7.800;2023-11-21T23:26:15;15.60;;;15.10;;
63551;SDS011;49698;48.072;7.800;2023-11-21T23:28:44;15.80;;;15.30;;
63551;SDS011;49698;48.072;7.800;2023-11-21T23:33:44;16.60;;;16.10;;
